• Join FlightAware (Why Join?)
  • Login
  • US Flag 
11:14PM EST


 

Airport Tracker/Info


-or-


 

Live Flight TrackerFlight Track Log ✈ AMF1324 ✈ 14-Nov-2013 ✈ KBUF - KBGM

Flight Track Log - Related Links

Times and Time Zones

All times are in EST time to prevent confusion due to time zone crossing. See the AMF1324 flight status page for this flight to view local times or setup timezone preferences in your user account.

Time Position Orientation Groundspeed Altitude Reporting Facility
EST Latitude Longitude Course Direction KTS MPH feet Rate Location/Type
06:28AM 42.9333 -78.7333 216° Southwest 138 159 1,900  Level Buffalo TRACON
06:28AM 42.9167 -78.7500 216° Southwest 141 162 3,300 1,938 Climbing Buffalo TRACON
06:29AM 42.8833 -78.7000 132° Southeast 221 254 5,000 1,253 Climbing Buffalo TRACON
06:31AM 42.8792 -78.5628 92° East 250 288 6,600 1,163 Climbing Cleveland Center
06:32AM 42.8697 -78.4575 97° East 260 299 8,100 1,366 Climbing Cleveland Center
06:33AM 42.8611 -78.3672 97° East 252 290 9,400 1,279 Climbing Cleveland Center
06:34AM 42.8575 -78.2794 93° East 243 280 10,700 1,328 Climbing Cleveland Center
06:35AM 42.8497 -78.1769 96° East 229 264 12,100 1,180 Climbing Cleveland Center
06:36AM 42.8453 -78.0911 94° East 227 261 13,100 443 Climbing Cleveland Center
06:37AM 42.8400 -77.9939 94° East 255 293 13,000 -49 Descending Cleveland Center
06:38AM 42.8381 -77.8917 91° East 268 308 13,000 -49 Level Cleveland Center
06:39AM 42.8358 -77.7875 92° East 273 314 12,900  Descending Cleveland Center
06:40AM 42.8194 -77.6872 103° East 278 320 13,000 49 Climbing Cleveland Center
06:41AM 42.7847 -77.5958 117° Southeast 272 313 13,000  Level Cleveland Center
06:42AM 42.7481 -77.5025 118° Southeast 274 315 13,000  Level Cleveland Center
06:43AM 42.7106 -77.4122 119° Southeast 273 314 13,000 -49 Level Cleveland Center
06:44AM 42.6722 -77.3244 121° Southeast 270 311 12,900  Descending Cleveland Center
06:45AM 42.6311 -77.2383 123° Southeast 270 311 13,000 49 Climbing Cleveland Center
06:46AM 42.5908 -77.1525 122° Southeast 269 310 13,000 49 Level Cleveland Center
06:47AM 42.5514 -77.0681 122° Southeast 268 308 13,100 49 Climbing Cleveland Center
06:48AM 42.5122 -76.9833 122° Southeast 265 305 13,100  Level Cleveland Center
06:49AM 42.4667 -76.8775 120° Southeast 270 311 13,100 -341 Level Cleveland Center
06:50AM 42.4297 -76.7883 119° Southeast 271 312 12,400 -1,220 Descending Cleveland Center
06:51AM 42.3897 -76.6839 117° Southeast 304 350 10,600 -1,463 Descending Cleveland Center
06:52AM 42.3464 -76.5744 118° Southeast 328 377 9,400 -780 Descending Cleveland Center
06:53AM 42.3247 -76.4603 104° East 319 367 9,000 -341 Descending Cleveland Center
06:54AM 42.3128 -76.3411 98° East 302 348 8,700 -683 Descending Cleveland Center
06:55AM 42.2967 -76.2242 101° East 311 358 7,600 -1,707 Descending Cleveland Center
06:56AM 42.2828 -76.1067 99° East 317 365 5,200 -1,463 Descending Cleveland Center
06:57AM 42.2744 -75.9994 96° East 304 350 4,600 -439 Descending Cleveland Center
06:59AM 42.3017 -76.0072 348° North 211 243 4,300 -930 Descending Cleveland Center
07:00AM 42.2550 -76.0211 192° South 65 75 2,600 -945 Descending New York Center
07:01AM 42.2392 -76.0028 139° Southeast 84 97 2,300 -300 Descending New York Center